Toulon-Hyères Airport

LFTH · Var, 普罗旺斯-阿尔卑斯-蓝色海岸, 法国

罗盘
风向 的 风向 的 风向 到 风向 140° Toulon-Hyères Airport 5/23
风: 6 kt, 2 beaufort


6 kt
改变
0 ft 1.000 2.000 3.000 4.000 5.000
CAVOK
METAR LFTH 271130Z AUTO 14006KT 110V170 CAVOK 23/13 Q1018 TEMPO RA

METAR Toulon-Hyères Airport - LFTH/TLN

Toulon-Hyères Airport是,法国中的中型机场。 该机场位于纬度43,09814和经度6,15063。 该机场有2条跑道: 5/23 和 13/31. 本场的ICAO机场代码为LFTH。 该机场的IATA代码为TLN。 机场在Marseille FIR中。

该航空气象观测是针对Toulon-Hyères Airport在2024年5月27日 13:30, 当地时间进行的。

机场观察

风向为140°,速度为6 kt。 风向在110°和170°之间变化。

天气为CAVOK。这意味着在5.000 ft或MSA(最低安全高度)以下(以较高者为准)以下没有云。这也意味着没有观测到积雨云或高耸的积云,可见度为10 km 或者更多或更高。此外,不会有雾,降雨或其他重要天气。

温度和风寒是23 °C。 露点为13 °C,相对湿度为53%。 海平面上的气压为1018 hPa (QNH)。

发展趋势

  • 暂时的

    可变方向的风很小或没有。 重大天气:雨。

白天

今天,太阳从06:01升起,在21:04降落。 这适用于Toulon-Hyères Airport,世界夏令时可能有所不同。 当地时间与世界标准时间之间的时差为+2 小时。 夏令时目前正在进行中。

公司介绍

我们没有关于这个机场的公司信息。

体会

到Vliegles.nl去找飞行课程,跳伞和其他飞行体验。 浏览页面,了解Toulon-Hyères Airport附近所有可用的活动。 你也可以使用搜索功能来寻找你所在地附近的特定飞行课程、跳伞或其他飞行体验。

跑道

Id 标题 侧风 逆风 侧风 %
5/23 051°-231° 6 kt 100 %
13/31 135°-315° 6 kt 9 %

逆风成分最大的方向会被突出显示,并用于横风计算。 这并不一定意味着这个方向在使用。

温度 & 天气

温度 23 °C
露点 13 °C
相对湿度 53%
Kp-index 3 (0-9)

白天

日出
06:01
中午
13:32
日落
21:04 (7:06)

小工具

你想在你的网站上有一个关于Toulon-Hyères Airport的当前航空天气(METAR)的小部件吗?

显示HTML代码
报告变更